sensor_id;sensor_type;location;lat;lon;timestamp;pressure;altitude;pressure_sealevel;temperature;humidity
72038;BME280;59900;50.788;12.904;2023-03-23T00:02:25;96778.78;;;13.35;51.92
72038;BME280;59900;50.788;12.904;2023-03-23T00:04:51;96781.88;;;13.32;52.03
72038;BME280;59900;50.788;12.904;2023-03-23T00:07:16;96771.66;;;13.36;52.05
72038;BME280;59900;50.788;12.904;2023-03-23T00:09:49;96769.81;;;13.36;52.10
72038;BME280;59900;50.788;12.904;2023-03-23T00:12:24;96764.09;;;13.39;51.37
72038;BME280;59900;50.788;12.904;2023-03-23T00:15:01;96761.22;;;13.41;51.46
72038;BME280;59900;50.788;12.904;2023-03-23T00:17:27;96755.69;;;13.42;51.56
72038;BME280;59900;50.788;12.904;2023-03-23T00:19:53;96752.50;;;13.40;51.36
72038;BME280;59900;50.788;12.904;2023-03-23T00:22:18;96753.88;;;13.43;51.53
72038;BME280;59900;50.788;12.904;2023-03-23T00:24:47;96752.25;;;13.42;51.59
72038;BME280;59900;50.788;12.904;2023-03-23T00:27:13;96764.63;;;13.41;51.42
72038;BME280;59900;50.788;12.904;2023-03-23T00:29:40;96751.78;;;13.45;51.55
72038;BME280;59900;50.788;12.904;2023-03-23T00:32:06;96751.56;;;13.46;51.49
72038;BME280;59900;50.788;12.904;2023-03-23T00:34:31;96752.84;;;13.44;51.74
72038;BME280;59900;50.788;12.904;2023-03-23T00:36:59;96755.78;;;13.47;51.62
72038;BME280;59900;50.788;12.904;2023-03-23T00:39:25;96750.50;;;13.47;51.41
72038;BME280;59900;50.788;12.904;2023-03-23T00:41:53;96739.97;;;13.47;51.33
72038;BME280;59900;50.788;12.904;2023-03-23T00:44:19;96741.56;;;13.48;51.30
72038;BME280;59900;50.788;12.904;2023-03-23T00:46:48;96749.28;;;13.50;50.72
72038;BME280;59900;50.788;12.904;2023-03-23T00:49:19;96734.47;;;13.49;50.98
72038;BME280;59900;50.788;12.904;2023-03-23T00:51:45;96734.22;;;13.51;51.28
72038;BME280;59900;50.788;12.904;2023-03-23T00:54:11;96730.78;;;13.50;51.11
72038;BME280;59900;50.788;12.904;2023-03-23T00:56:37;96723.66;;;13.51;50.97
72038;BME280;59900;50.788;12.904;2023-03-23T00:59:04;96717.34;;;13.52;50.87
72038;BME280;59900;50.788;12.904;2023-03-23T01:01:30;96714.72;;;13.52;51.11
72038;BME280;59900;50.788;12.904;2023-03-23T01:03:55;96705.66;;;13.47;51.08
72038;BME280;59900;50.788;12.904;2023-03-23T01:06:27;96709.91;;;13.48;50.93
72038;BME280;59900;50.788;12.904;2023-03-23T01:08:53;96708.53;;;13.46;51.05
72038;BME280;59900;50.788;12.904;2023-03-23T01:11:19;96709.56;;;13.45;50.94
72038;BME280;59900;50.788;12.904;2023-03-23T01:13:44;96713.00;;;13.45;50.45
72038;BME280;59900;50.788;12.904;2023-03-23T01:16:10;96710.38;;;13.45;50.97
72038;BME280;59900;50.788;12.904;2023-03-23T01:18:36;96698.19;;;13.44;50.98
72038;BME280;59900;50.788;12.904;2023-03-23T01:21:10;96698.78;;;13.46;50.95
72038;BME280;59900;50.788;12.904;2023-03-23T01:23:37;96697.97;;;13.46;50.49
72038;BME280;59900;50.788;12.904;2023-03-23T01:26:07;96683.97;;;13.45;50.99
72038;BME280;59900;50.788;12.904;2023-03-23T01:28:34;96695.91;;;13.48;50.67
72038;BME280;59900;50.788;12.904;2023-03-23T01:31:03;96693.50;;;13.46;50.70
72038;BME280;59900;50.788;12.904;2023-03-23T01:33:29;96689.81;;;13.47;50.57
72038;BME280;59900;50.788;12.904;2023-03-23T01:35:55;96690.63;;;13.48;50.81
72038;BME280;59900;50.788;12.904;2023-03-23T01:38:20;96679.84;;;13.50;50.56
72038;BME280;59900;50.788;12.904;2023-03-23T01:40:46;96680.66;;;13.50;50.54
72038;BME280;59900;50.788;12.904;2023-03-23T01:43:13;96665.03;;;13.48;50.33
72038;BME280;59900;50.788;12.904;2023-03-23T01:45:40;96677.41;;;13.48;50.61
72038;BME280;59900;50.788;12.904;2023-03-23T01:48:23;96685.13;;;13.50;50.74
72038;BME280;59900;50.788;12.904;2023-03-23T01:51:14;96682.69;;;13.48;50.53
72038;BME280;59900;50.788;12.904;2023-03-23T01:53:56;96686.63;;;13.45;50.59
72038;BME280;59900;50.788;12.904;2023-03-23T01:56:25;96687.63;;;13.44;50.65
72038;BME280;59900;50.788;12.904;2023-03-23T01:58:55;96673.75;;;13.49;51.28
72038;BME280;59900;50.788;12.904;2023-03-23T02:01:21;96679.25;;;13.47;51.11
72038;BME280;59900;50.788;12.904;2023-03-23T02:03:47;96683.50;;;13.48;51.15
72038;BME280;59900;50.788;12.904;2023-03-23T02:06:13;96671.34;;;13.47;51.58
72038;BME280;59900;50.788;12.904;2023-03-23T02:08:40;96673.97;;;13.47;51.39
72038;BME280;59900;50.788;12.904;2023-03-23T02:11:18;96674.78;;;13.48;51.46
72038;BME280;59900;50.788;12.904;2023-03-23T02:13:44;96668.13;;;13.45;52.05
72038;BME280;59900;50.788;12.904;2023-03-23T02:16:17;96643.34;;;13.46;51.92
72038;BME280;59900;50.788;12.904;2023-03-23T02:18:56;96661.03;;;13.46;52.03
72038;BME280;59900;50.788;12.904;2023-03-23T02:24:29;96665.84;;;13.49;52.15
72038;BME280;59900;50.788;12.904;2023-03-23T02:27:11;96664.22;;;13.48;52.52
72038;BME280;59900;50.788;12.904;2023-03-23T02:32:45;96673.88;;;13.42;52.64
72038;BME280;59900;50.788;12.904;2023-03-23T02:35:37;96660.13;;;13.40;53.23
72038;BME280;59900;50.788;12.904;2023-03-23T02:38:14;96662.78;;;13.40;53.22
72038;BME280;59900;50.788;12.904;2023-03-23T02:40:44;96659.31;;;13.40;53.52
72038;BME280;59900;50.788;12.904;2023-03-23T02:43:14;96658.75;;;13.38;53.36
72038;BME280;59900;50.788;12.904;2023-03-23T02:45:41;96651.16;;;13.41;53.95
72038;BME280;59900;50.788;12.904;2023-03-23T02:48:08;96650.38;;;13.41;54.35
72038;BME280;59900;50.788;12.904;2023-03-23T02:50:35;96648.50;;;13.41;54.19
72038;BME280;59900;50.788;12.904;2023-03-23T02:53:02;96645.88;;;13.41;54.57
72038;BME280;59900;50.788;12.904;2023-03-23T02:55:30;96660.69;;;13.42;54.27
72038;BME280;59900;50.788;12.904;2023-03-23T02:57:56;96651.97;;;13.42;54.51
72038;BME280;59900;50.788;12.904;2023-03-23T03:00:22;96648.31;;;13.43;55.04
72038;BME280;59900;50.788;12.904;2023-03-23T03:02:52;96649.56;;;13.40;55.17
72038;BME280;59900;50.788;12.904;2023-03-23T03:05:35;96632.13;;;13.39;55.10
72038;BME280;59900;50.788;12.904;2023-03-23T03:08:15;96635.56;;;13.40;55.27
72038;BME280;59900;50.788;12.904;2023-03-23T03:11:06;96637.66;;;13.38;55.20
72038;BME280;59900;50.788;12.904;2023-03-23T03:13:58;96637.66;;;13.38;55.65
72038;BME280;59900;50.788;12.904;2023-03-23T03:16:36;96640.75;;;13.35;55.50
72038;BME280;59900;50.788;12.904;2023-03-23T03:19:06;96637.78;;;13.31;55.40
72038;BME280;59900;50.788;12.904;2023-03-23T03:21:36;96632.50;;;13.31;55.72
72038;BME280;59900;50.788;12.904;2023-03-23T03:24:03;96641.44;;;13.30;55.58
72038;BME280;59900;50.788;12.904;2023-03-23T03:26:33;96630.91;;;13.30;55.83
72038;BME280;59900;50.788;12.904;2023-03-23T03:29:00;96641.44;;;13.30;55.21
72038;BME280;59900;50.788;12.904;2023-03-23T03:31:29;96630.69;;;13.32;55.63
72038;BME280;59900;50.788;12.904;2023-03-23T03:33:56;96636.63;;;13.27;55.28
72038;BME280;59900;50.788;12.904;2023-03-23T03:36:24;96637.69;;;13.26;55.88
72038;BME280;59900;50.788;12.904;2023-03-23T03:38:51;96644.00;;;13.25;55.91
72038;BME280;59900;50.788;12.904;2023-03-23T03:41:18;96632.88;;;13.23;55.97
72038;BME280;59900;50.788;12.904;2023-03-23T03:43:43;96633.91;;;13.22;55.79
72038;BME280;59900;50.788;12.904;2023-03-23T03:46:09;96630.72;;;13.20;56.09
72038;BME280;59900;50.788;12.904;2023-03-23T03:48:34;96637.81;;;13.20;55.79
72038;BME280;59900;50.788;12.904;2023-03-23T03:51:00;96638.03;;;13.18;56.26
72038;BME280;59900;50.788;12.904;2023-03-23T03:53:27;96634.63;;;13.18;56.18
72038;BME280;59900;50.788;12.904;2023-03-23T03:55:52;96628.19;;;13.14;56.35
72038;BME280;59900;50.788;12.904;2023-03-23T03:58:21;96628.19;;;13.14;56.31
72038;BME280;59900;50.788;12.904;2023-03-23T04:00:46;96631.88;;;13.13;56.29
72038;BME280;59900;50.788;12.904;2023-03-23T04:03:13;96626.25;;;13.09;56.73
72038;BME280;59900;50.788;12.904;2023-03-23T04:05:39;96627.31;;;13.08;56.55
72038;BME280;59900;50.788;12.904;2023-03-23T04:08:04;96625.91;;;13.06;56.46
72038;BME280;59900;50.788;12.904;2023-03-23T04:10:30;96619.25;;;13.03;56.55
72038;BME280;59900;50.788;12.904;2023-03-23T04:12:56;96620.75;;;12.99;56.84
72038;BME280;59900;50.788;12.904;2023-03-23T04:15:22;96616.75;;;12.97;56.71
72038;BME280;59900;50.788;12.904;2023-03-23T04:17:47;96623.84;;;12.96;56.89
72038;BME280;59900;50.788;12.904;2023-03-23T04:20:12;96605.41;;;12.96;56.58
72038;BME280;59900;50.788;12.904;2023-03-23T04:22:42;96606.19;;;12.97;56.65
72038;BME280;59900;50.788;12.904;2023-03-23T04:25:09;96602.97;;;12.94;57.10
72038;BME280;59900;50.788;12.904;2023-03-23T04:27:36;96606.88;;;12.92;56.82
72038;BME280;59900;50.788;12.904;2023-03-23T04:30:01;96598.66;;;12.88;56.49
72038;BME280;59900;50.788;12.904;2023-03-23T04:32:28;96611.59;;;12.90;56.42
72038;BME280;59900;50.788;12.904;2023-03-23T04:34:56;96609.22;;;12.88;56.31
72038;BME280;59900;50.788;12.904;2023-03-23T04:37:25;96605.53;;;12.89;56.14
72038;BME280;59900;50.788;12.904;2023-03-23T04:39:53;96606.31;;;12.90;55.97
72038;BME280;59900;50.788;12.904;2023-03-23T04:42:26;96608.75;;;12.91;56.17
72038;BME280;59900;50.788;12.904;2023-03-23T04:44:52;96607.34;;;12.89;55.73
72038;BME280;59900;50.788;12.904;2023-03-23T04:47:19;96612.97;;;12.92;55.88
72038;BME280;59900;50.788;12.904;2023-03-23T04:49:44;96608.50;;;12.93;55.63
72038;BME280;59900;50.788;12.904;2023-03-23T04:52:09;96611.94;;;12.93;55.52
72038;BME280;59900;50.788;12.904;2023-03-23T04:54:35;96611.69;;;12.95;55.10
72038;BME280;59900;50.788;12.904;2023-03-23T04:57:00;96619.94;;;12.99;55.40
72038;BME280;59900;50.788;12.904;2023-03-23T04:59:25;96620.97;;;12.98;55.23
72038;BME280;59900;50.788;12.904;2023-03-23T05:01:53;96619.13;;;12.98;55.05
72038;BME280;59900;50.788;12.904;2023-03-23T05:04:18;96618.34;;;12.98;55.30
72038;BME280;59900;50.788;12.904;2023-03-23T05:06:43;96620.19;;;12.97;55.54
72038;BME280;59900;50.788;12.904;2023-03-23T05:09:10;96623.38;;;12.99;55.41
72038;BME280;59900;50.788;12.904;2023-03-23T05:11:35;96621.78;;;12.98;55.10
72038;BME280;59900;50.788;12.904;2023-03-23T05:14:03;96635.31;;;13.02;55.57
72038;BME280;59900;50.788;12.904;2023-03-23T05:16:29;96619.00;;;13.05;55.43
72038;BME280;59900;50.788;12.904;2023-03-23T05:18:55;96623.28;;;13.06;55.63
72038;BME280;59900;50.788;12.904;2023-03-23T05:21:22;96618.81;;;13.06;55.26
72038;BME280;59900;50.788;12.904;2023-03-23T05:23:48;96614.13;;;13.08;55.29
72038;BME280;59900;50.788;12.904;2023-03-23T05:26:19;96625.00;;;13.12;55.42
72038;BME280;59900;50.788;12.904;2023-03-23T05:28:45;96631.66;;;13.14;55.39
72038;BME280;59900;50.788;12.904;2023-03-23T05:31:10;96629.56;;;13.16;55.48
72038;BME280;59900;50.788;12.904;2023-03-23T05:33:36;96620.16;;;13.20;55.09
72038;BME280;59900;50.788;12.904;2023-03-23T05:36:01;96634.16;;;13.21;55.30
72038;BME280;59900;50.788;12.904;2023-03-23T05:38:29;96625.53;;;13.25;55.25
72038;BME280;59900;50.788;12.904;2023-03-23T05:40:58;96625.28;;;13.27;55.17
72038;BME280;59900;50.788;12.904;2023-03-23T05:43:26;96626.66;;;13.29;55.22
72038;BME280;59900;50.788;12.904;2023-03-23T05:45:51;96636.75;;;13.32;55.09
72038;BME280;59900;50.788;12.904;2023-03-23T05:48:16;96633.06;;;13.33;55.14
72038;BME280;59900;50.788;12.904;2023-03-23T05:50:41;96631.56;;;13.37;54.74
72038;BME280;59900;50.788;12.904;2023-03-23T05:53:07;96633.19;;;13.38;55.26
72038;BME280;59900;50.788;12.904;2023-03-23T05:55:32;96634.06;;;13.44;55.36
72038;BME280;59900;50.788;12.904;2023-03-23T05:57:58;96630.72;;;13.48;55.53
72038;BME280;59900;50.788;12.904;2023-03-23T06:00:24;96633.91;;;13.51;54.95
72038;BME280;59900;50.788;12.904;2023-03-23T06:02:49;96631.06;;;13.52;54.93
72038;BME280;59900;50.788;12.904;2023-03-23T06:05:16;96628.75;;;13.56;54.79
72038;BME280;59900;50.788;12.904;2023-03-23T06:07:42;96626.09;;;13.56;54.96
72038;BME280;59900;50.788;12.904;2023-03-23T06:10:08;96642.75;;;13.56;54.78
72038;BME280;59900;50.788;12.904;2023-03-23T06:12:35;96646.41;;;13.55;54.84
72038;BME280;59900;50.788;12.904;2023-03-23T06:15:00;96653.53;;;13.55;55.06
72038;BME280;59900;50.788;12.904;2023-03-23T06:17:25;96653.66;;;13.48;55.05
72038;BME280;59900;50.788;12.904;2023-03-23T06:19:51;96650.22;;;13.47;55.23
72038;BME280;59900;50.788;12.904;2023-03-23T06:22:17;96652.31;;;13.45;55.33
72038;BME280;59900;50.788;12.904;2023-03-23T06:24:43;96669.16;;;13.44;55.29
72038;BME280;59900;50.788;12.904;2023-03-23T06:27:09;96661.72;;;13.41;55.22
72038;BME280;59900;50.788;12.904;2023-03-23T06:29:34;96671.16;;;13.37;55.45
72038;BME280;59900;50.788;12.904;2023-03-23T06:32:01;96653.78;;;13.41;55.12
72038;BME280;59900;50.788;12.904;2023-03-23T06:34:28;96663.31;;;13.42;55.31
72038;BME280;59900;50.788;12.904;2023-03-23T06:36:53;96667.56;;;13.43;54.96
72038;BME280;59900;50.788;12.904;2023-03-23T06:39:18;96654.13;;;13.45;55.34
72038;BME280;59900;50.788;12.904;2023-03-23T06:41:44;96673.41;;;13.45;55.02
72038;BME280;59900;50.788;12.904;2023-03-23T06:44:09;96692.91;;;13.44;55.32
72038;BME280;59900;50.788;12.904;2023-03-23T06:46:38;96670.31;;;13.48;55.45
72038;BME280;59900;50.788;12.904;2023-03-23T06:49:04;96669.63;;;13.53;55.19
72038;BME280;59900;50.788;12.904;2023-03-23T06:51:30;96667.28;;;13.57;55.04
72038;BME280;59900;50.788;12.904;2023-03-23T06:53:55;96670.03;;;13.62;55.39
72038;BME280;59900;50.788;12.904;2023-03-23T06:56:22;96680.69;;;13.67;55.24
72038;BME280;59900;50.788;12.904;2023-03-23T06:58:47;96676.56;;;13.71;55.07
72038;BME280;59900;50.788;12.904;2023-03-23T07:01:13;96681.34;;;13.74;55.63
72038;BME280;59900;50.788;12.904;2023-03-23T07:03:40;96685.13;;;13.78;55.30
72038;BME280;59900;50.788;12.904;2023-03-23T07:06:06;96703.59;;;13.78;55.03
72038;BME280;59900;50.788;12.904;2023-03-23T07:08:32;96689.59;;;13.77;54.84
72038;BME280;59900;50.788;12.904;2023-03-23T07:10:57;96674.34;;;13.79;55.28
72038;BME280;59900;50.788;12.904;2023-03-23T07:13:23;96680.84;;;13.77;55.22
72038;BME280;59900;50.788;12.904;2023-03-23T07:15:48;96693.50;;;13.75;55.37
72038;BME280;59900;50.788;12.904;2023-03-23T07:18:16;96695.94;;;13.76;55.46
72038;BME280;59900;50.788;12.904;2023-03-23T07:20:41;96696.69;;;13.77;55.46
72038;BME280;59900;50.788;12.904;2023-03-23T07:23:07;96689.38;;;13.79;55.44
72038;BME280;59900;50.788;12.904;2023-03-23T07:25:33;96689.59;;;13.77;55.67
72038;BME280;59900;50.788;12.904;2023-03-23T07:28:00;96702.09;;;13.82;55.66
72038;BME280;59900;50.788;12.904;2023-03-23T07:30:26;96692.66;;;13.86;55.76
72038;BME280;59900;50.788;12.904;2023-03-23T07:32:52;96688.44;;;13.85;55.80
72038;BME280;59900;50.788;12.904;2023-03-23T07:35:18;96687.84;;;13.83;55.89
72038;BME280;59900;50.788;12.904;2023-03-23T07:37:43;96699.13;;;13.78;56.09
72038;BME280;59900;50.788;12.904;2023-03-23T07:40:09;96697.03;;;13.80;56.17
72038;BME280;59900;50.788;12.904;2023-03-23T07:42:45;96704.63;;;13.77;57.12
72038;BME280;59900;50.788;12.904;2023-03-23T07:45:12;96712.47;;;13.72;57.22
72038;BME280;59900;50.788;12.904;2023-03-23T07:47:38;96707.19;;;13.72;57.62
72038;BME280;59900;50.788;12.904;2023-03-23T07:50:05;96708.59;;;13.63;58.12
72038;BME280;59900;50.788;12.904;2023-03-23T07:52:31;96701.81;;;13.67;57.85
72038;BME280;59900;50.788;12.904;2023-03-23T07:54:56;96705.59;;;13.71;57.41
72038;BME280;59900;50.788;12.904;2023-03-23T07:57:22;96705.34;;;13.72;57.38
72038;BME280;59900;50.788;12.904;2023-03-23T07:59:47;96710.25;;;13.80;57.82
72038;BME280;59900;50.788;12.904;2023-03-23T08:02:12;96709.09;;;13.88;57.43
72038;BME280;59900;50.788;12.904;2023-03-23T08:04:38;96715.38;;;13.87;56.96
72038;BME280;59900;50.788;12.904;2023-03-23T08:07:04;96709.38;;;13.91;57.83
72038;BME280;59900;50.788;12.904;2023-03-23T08:09:32;96714.44;;;13.93;57.54
72038;BME280;59900;50.788;12.904;2023-03-23T08:11:57;96722.03;;;13.89;58.51
72038;BME280;59900;50.788;12.904;2023-03-23T08:14:23;96722.03;;;13.89;58.73
72038;BME280;59900;50.788;12.904;2023-03-23T08:16:53;96724.59;;;13.84;59.45
72038;BME280;59900;50.788;12.904;2023-03-23T08:19:21;96732.97;;;13.81;59.97
72038;BME280;59900;50.788;12.904;2023-03-23T08:21:47;96736.22;;;13.72;60.32
72038;BME280;59900;50.788;12.904;2023-03-23T08:24:12;96730.28;;;13.65;61.14
72038;BME280;59900;50.788;12.904;2023-03-23T08:26:38;96733.53;;;13.55;61.46
72038;BME280;59900;50.788;12.904;2023-03-23T08:29:03;96740.63;;;13.55;63.48
72038;BME280;59900;50.788;12.904;2023-03-23T08:31:29;96737.31;;;13.47;64.20
72038;BME280;59900;50.788;12.904;2023-03-23T08:33:54;96738.59;;;13.45;63.94
72038;BME280;59900;50.788;12.904;2023-03-23T08:36:21;96745.72;;;13.33;65.13
72038;BME280;59900;50.788;12.904;2023-03-23T08:38:47;96733.13;;;13.23;65.69
72038;BME280;59900;50.788;12.904;2023-03-23T08:41:12;96745.44;;;13.18;65.48
72038;BME280;59900;50.788;12.904;2023-03-23T08:43:37;96738.19;;;13.13;65.87
72038;BME280;59900;50.788;12.904;2023-03-23T08:46:04;96736.56;;;13.12;66.09
72038;BME280;59900;50.788;12.904;2023-03-23T08:48:34;96726.81;;;13.13;66.25
72038;BME280;59900;50.788;12.904;2023-03-23T08:51:00;96738.75;;;13.15;66.29
72038;BME280;59900;50.788;12.904;2023-03-23T08:53:26;96737.25;;;13.19;65.81
72038;BME280;59900;50.788;12.904;2023-03-23T08:55:55;96737.63;;;13.23;65.83
72038;BME280;59900;50.788;12.904;2023-03-23T08:58:21;96739.09;;;13.19;66.26
72038;BME280;59900;50.788;12.904;2023-03-23T09:00:47;96725.22;;;13.23;65.53
72038;BME280;59900;50.788;12.904;2023-03-23T09:03:13;96732.69;;;13.26;65.47
72038;BME280;59900;50.788;12.904;2023-03-23T09:05:38;96734.94;;;13.34;64.90
72038;BME280;59900;50.788;12.904;2023-03-23T09:08:08;96716.22;;;13.36;65.03
72038;BME280;59900;50.788;12.904;2023-03-23T09:10:33;96730.03;;;13.38;64.52
72038;BME280;59900;50.788;12.904;2023-03-23T09:12:58;96730.13;;;13.43;64.02
72038;BME280;59900;50.788;12.904;2023-03-23T09:15:23;96732.03;;;13.47;64.23
72038;BME280;59900;50.788;12.904;2023-03-23T09:17:51;96734.00;;;13.52;64.02
72038;BME280;59900;50.788;12.904;2023-03-23T09:20:20;96731.34;;;13.52;63.93
72038;BME280;59900;50.788;12.904;2023-03-23T09:22:49;96733.75;;;13.54;63.49
72038;BME280;59900;50.788;12.904;2023-03-23T09:25:16;96732.25;;;13.58;63.73
72038;BME280;59900;50.788;12.904;2023-03-23T09:27:45;96735.25;;;13.61;63.94
72038;BME280;59900;50.788;12.904;2023-03-23T09:30:12;96732.69;;;13.66;64.09
72038;BME280;59900;50.788;12.904;2023-03-23T09:32:39;96726.81;;;13.76;63.56
72038;BME280;59900;50.788;12.904;2023-03-23T09:35:06;96731.50;;;13.74;63.08
72038;BME280;59900;50.788;12.904;2023-03-23T09:37:37;96738.72;;;13.78;62.87
72038;BME280;59900;50.788;12.904;2023-03-23T09:40:04;96734.00;;;13.80;63.30
72038;BME280;59900;50.788;12.904;2023-03-23T09:42:48;96750.44;;;13.82;63.70
72038;BME280;59900;50.788;12.904;2023-03-23T09:45:26;96759.47;;;13.86;63.63
72038;BME280;59900;50.788;12.904;2023-03-23T09:50:40;96738.19;;;13.76;63.91
72038;BME280;59900;50.788;12.904;2023-03-23T09:53:22;96742.75;;;13.81;64.04
72038;BME280;59900;50.788;12.904;2023-03-23T09:55:49;96752.84;;;13.84;63.69
72038;BME280;59900;50.788;12.904;2023-03-23T09:58:41;96740.31;;;13.91;63.82
72038;BME280;59900;50.788;12.904;2023-03-23T10:01:19;96761.44;;;13.91;63.55
72038;BME280;59900;50.788;12.904;2023-03-23T10:03:46;96753.97;;;13.88;64.11
72038;BME280;59900;50.788;12.904;2023-03-23T10:06:15;96770.03;;;13.86;63.69
72038;BME280;59900;50.788;12.904;2023-03-23T10:08:53;96768.13;;;13.82;64.26
72038;BME280;59900;50.788;12.904;2023-03-23T10:11:57;96760.63;;;13.90;64.07
72038;BME280;59900;50.788;12.904;2023-03-23T10:14:53;96781.84;;;13.95;63.99
72038;BME280;59900;50.788;12.904;2023-03-23T10:17:28;96769.03;;;13.87;64.49
72038;BME280;59900;50.788;12.904;2023-03-23T10:20:05;96783.97;;;13.82;64.70
72038;BME280;59900;50.788;12.904;2023-03-23T10:22:40;96786.94;;;13.74;64.65
72038;BME280;59900;50.788;12.904;2023-03-23T10:25:16;96775.63;;;13.73;64.88
72038;BME280;59900;50.788;12.904;2023-03-23T10:28:05;96757.69;;;13.75;64.90
72038;BME280;59900;50.788;12.904;2023-03-23T10:33:11;96761.44;;;13.91;64.84
72038;BME280;59900;50.788;12.904;2023-03-23T10:35:43;96745.66;;;13.96;64.69
72038;BME280;59900;50.788;12.904;2023-03-23T10:38:14;96753.13;;;13.99;64.78
72038;BME280;59900;50.788;12.904;2023-03-23T10:40:52;96771.94;;;14.02;65.06
72038;BME280;59900;50.788;12.904;2023-03-23T10:43:18;96766.47;;;13.92;65.65
72038;BME280;59900;50.788;12.904;2023-03-23T10:45:52;96770.47;;;13.95;65.65
72038;BME280;59900;50.788;12.904;2023-03-23T10:48:28;96759.72;;;13.85;65.61
72038;BME280;59900;50.788;12.904;2023-03-23T10:50:58;96760.69;;;13.67;66.17
72038;BME280;59900;50.788;12.904;2023-03-23T10:53:31;96780.00;;;13.68;66.45
72038;BME280;59900;50.788;12.904;2023-03-23T10:55:58;96775.63;;;13.73;66.57
72038;BME280;59900;50.788;12.904;2023-03-23T11:00:49;96776.03;;;13.82;66.00
72038;BME280;59900;50.788;12.904;2023-03-23T11:05:47;96770.16;;;13.80;66.16
72038;BME280;59900;50.788;12.904;2023-03-23T11:08:15;96781.13;;;13.72;66.15
72038;BME280;59900;50.788;12.904;2023-03-23T11:13:15;96785.31;;;13.56;66.61
72038;BME280;59900;50.788;12.904;2023-03-23T11:15:42;96788.97;;;13.55;67.05
72038;BME280;59900;50.788;12.904;2023-03-23T11:18:22;96790.91;;;13.48;67.10
72038;BME280;59900;50.788;12.904;2023-03-23T11:20:51;96804.00;;;13.43;67.80
72038;BME280;59900;50.788;12.904;2023-03-23T11:23:23;96786.72;;;13.35;68.58
72038;BME280;59900;50.788;12.904;2023-03-23T11:26:01;96794.28;;;13.20;69.87
72038;BME280;59900;50.788;12.904;2023-03-23T11:28:36;96806.31;;;13.16;70.52
72038;BME280;59900;50.788;12.904;2023-03-23T11:31:05;96794.50;;;13.19;70.33
72038;BME280;59900;50.788;12.904;2023-03-23T11:34:01;96779.47;;;13.19;70.50
72038;BME280;59900;50.788;12.904;2023-03-23T11:36:32;96822.50;;;13.20;70.58
72038;BME280;59900;50.788;12.904;2023-03-23T11:38:58;96793.56;;;13.25;70.17
72038;BME280;59900;50.788;12.904;2023-03-23T11:41:24;96773.03;;;13.27;69.04
72038;BME280;59900;50.788;12.904;2023-03-23T11:43:53;96783.03;;;13.25;68.39
72038;BME280;59900;50.788;12.904;2023-03-23T11:46:30;96769.84;;;13.25;68.34
72038;BME280;59900;50.788;12.904;2023-03-23T11:49:01;96772.47;;;13.36;68.17
72038;BME280;59900;50.788;12.904;2023-03-23T11:51:45;96787.94;;;13.44;68.51
72038;BME280;59900;50.788;12.904;2023-03-23T11:54:21;96782.31;;;13.53;67.21
72038;BME280;59900;50.788;12.904;2023-03-23T11:56:50;96764.84;;;13.63;67.24
72038;BME280;59900;50.788;12.904;2023-03-23T11:59:30;96762.97;;;13.75;67.46
72038;BME280;59900;50.788;12.904;2023-03-23T12:07:46;96764.75;;;13.86;66.20
72038;BME280;59900;50.788;12.904;2023-03-23T12:13:23;96769.91;;;13.93;65.96
72038;BME280;59900;50.788;12.904;2023-03-23T12:16:08;96752.22;;;13.93;65.51
72038;BME280;59900;50.788;12.904;2023-03-23T12:19:07;96785.28;;;13.96;65.31
72038;BME280;59900;50.788;12.904;2023-03-23T12:22:02;96753.34;;;13.97;65.12
72038;BME280;59900;50.788;12.904;2023-03-23T12:24:50;96761.75;;;13.94;65.36
72038;BME280;59900;50.788;12.904;2023-03-23T12:33:16;96756.56;;;13.99;64.43
72038;BME280;59900;50.788;12.904;2023-03-23T12:35:58;96745.28;;;14.04;64.36
72038;BME280;59900;50.788;12.904;2023-03-23T12:38:32;96772.72;;;14.15;64.43
72038;BME280;59900;50.788;12.904;2023-03-23T12:41:14;96766.22;;;14.22;64.34
72038;BME280;59900;50.788;12.904;2023-03-23T12:43:59;96766.75;;;14.08;64.16
72038;BME280;59900;50.788;12.904;2023-03-23T12:47:36;96771.63;;;13.99;64.35
72038;BME280;59900;50.788;12.904;2023-03-23T12:49:36;96767.19;;;13.88;64.94
72038;BME280;59900;50.788;12.904;2023-03-23T12:52:10;96783.59;;;13.90;65.85
72038;BME280;59900;50.788;12.904;2023-03-23T12:54:54;96787.50;;;13.87;65.18
72038;BME280;59900;50.788;12.904;2023-03-23T12:58:02;96785.56;;;13.83;65.37
72038;BME280;59900;50.788;12.904;2023-03-23T13:00:34;96766.84;;;13.84;65.20
72038;BME280;59900;50.788;12.904;2023-03-23T13:03:23;96785.25;;;13.79;65.29
72038;BME280;59900;50.788;12.904;2023-03-23T13:08:37;96789.38;;;13.75;65.73
72038;BME280;59900;50.788;12.904;2023-03-23T13:11:10;96767.53;;;13.80;65.79
72038;BME280;59900;50.788;12.904;2023-03-23T13:13:47;96773.03;;;13.90;65.45
72038;BME280;59900;50.788;12.904;2023-03-23T13:16:24;96772.66;;;13.98;65.42
72038;BME280;59900;50.788;12.904;2023-03-23T13:19:22;96779.72;;;14.09;64.83
72038;BME280;59900;50.788;12.904;2023-03-23T13:21:59;96770.28;;;14.13;64.70
72038;BME280;59900;50.788;12.904;2023-03-23T13:24:28;96763.13;;;14.25;64.56
72038;BME280;59900;50.788;12.904;2023-03-23T13:26:55;96754.59;;;14.35;64.74
72038;BME280;59900;50.788;12.904;2023-03-23T13:29:23;96766.44;;;14.32;64.01
72038;BME280;59900;50.788;12.904;2023-03-23T13:31:50;96754.59;;;14.35;64.21
72038;BME280;59900;50.788;12.904;2023-03-23T13:34:24;96754.13;;;14.38;64.34
72038;BME280;59900;50.788;12.904;2023-03-23T13:36:56;96756.44;;;14.34;64.91
72038;BME280;59900;50.788;12.904;2023-03-23T13:39:28;96753.25;;;14.32;65.63
72038;BME280;59900;50.788;12.904;2023-03-23T13:42:20;96744.56;;;14.37;65.49